sensor_id;sensor_type;location;lat;lon;timestamp;pressure;altitude;pressure_sealevel;temperature;humidity
6090;BME280;3073;42.660;23.316;2022-12-20T00:01:08;96306.41;;;-0.52;100.00
6090;BME280;3073;42.660;23.316;2022-12-20T00:03:35;96299.56;;;-0.49;100.00
6090;BME280;3073;42.660;23.316;2022-12-20T00:06:02;96297.06;;;-0.49;100.00
6090;BME280;3073;42.660;23.316;2022-12-20T00:08:30;96298.91;;;-0.52;100.00
6090;BME280;3073;42.660;23.316;2022-12-20T00:11:00;96310.94;;;-0.45;100.00
6090;BME280;3073;42.660;23.316;2022-12-20T00:13:27;96304.03;;;-0.53;100.00
6090;BME280;3073;42.660;23.316;2022-12-20T00:16:03;96315.28;;;-0.47;100.00
6090;BME280;3073;42.660;23.316;2022-12-20T00:18:30;96305.75;;;-0.54;100.00
6090;BME280;3073;42.660;23.316;2022-12-20T00:20:58;96314.25;;;-0.45;100.00
6090;BME280;3073;42.660;23.316;2022-12-20T00:23:25;96319.19;;;-0.55;100.00
6090;BME280;3073;42.660;23.316;2022-12-20T00:25:59;96309.19;;;-0.55;100.00
6090;BME280;3073;42.660;23.316;2022-12-20T00:28:26;96311.84;;;-0.46;100.00
6090;BME280;3073;42.660;23.316;2022-12-20T00:30:53;96309.19;;;-0.55;100.00
6090;BME280;3073;42.660;23.316;2022-12-20T00:33:20;96313.69;;;-0.48;100.00
6090;BME280;3073;42.660;23.316;2022-12-20T00:35:47;96308.13;;;-0.52;100.00
6090;BME280;3073;42.660;23.316;2022-12-20T00:38:13;96312.47;;;-0.54;100.00
6090;BME280;3073;42.660;23.316;2022-12-20T00:40:40;96310.22;;;-0.57;100.00
6090;BME280;3073;42.660;23.316;2022-12-20T00:43:08;96301.06;;;-0.68;100.00
6090;BME280;3073;42.660;23.316;2022-12-20T00:45:36;96304.47;;;-0.69;100.00
6090;BME280;3073;42.660;23.316;2022-12-20T00:48:04;96305.50;;;-0.71;100.00
6090;BME280;3073;42.660;23.316;2022-12-20T00:50:32;96297.00;;;-0.80;100.00
6090;BME280;3073;42.660;23.316;2022-12-20T00:52:58;96297.63;;;-0.87;100.00
6090;BME280;3073;42.660;23.316;2022-12-20T00:55:26;96310.69;;;-0.84;100.00
6090;BME280;3073;42.660;23.316;2022-12-20T00:57:52;96306.91;;;-0.78;100.00
6090;BME280;3073;42.660;23.316;2022-12-20T01:00:21;96305.38;;;-0.70;100.00
6090;BME280;3073;42.660;23.316;2022-12-20T01:02:48;96307.47;;;-0.75;100.00
6090;BME280;3073;42.660;23.316;2022-12-20T01:05:15;96308.50;;;-0.77;100.00
6090;BME280;3073;42.660;23.316;2022-12-20T01:07:42;96300.47;;;-0.92;100.00
6090;BME280;3073;42.660;23.316;2022-12-20T01:10:09;96306.94;;;-0.89;100.00
6090;BME280;3073;42.660;23.316;2022-12-20T01:12:36;96310.25;;;-0.89;100.00
6090;BME280;3073;42.660;23.316;2022-12-20T01:15:05;96304.19;;;-0.86;100.00
6090;BME280;3073;42.660;23.316;2022-12-20T01:17:33;96298.22;;;-0.95;100.00
6090;BME280;3073;42.660;23.316;2022-12-20T01:20:01;96290.91;;;-0.87;100.00
6090;BME280;3073;42.660;23.316;2022-12-20T01:22:27;96295.22;;;-0.89;100.00
6090;BME280;3073;42.660;23.316;2022-12-20T01:24:54;96288.75;;;-0.91;100.00
6090;BME280;3073;42.660;23.316;2022-12-20T01:27:21;96290.16;;;-0.98;100.00
6090;BME280;3073;42.660;23.316;2022-12-20T01:29:49;96287.09;;;-1.02;100.00
6090;BME280;3073;42.660;23.316;2022-12-20T01:32:15;96284.34;;;-0.99;100.00
6090;BME280;3073;42.660;23.316;2022-12-20T01:34:44;96270.22;;;-1.00;100.00
6090;BME280;3073;42.660;23.316;2022-12-20T01:37:11;96277.22;;;-1.03;100.00
6090;BME280;3073;42.660;23.316;2022-12-20T01:39:38;96272.06;;;-1.02;100.00
6090;BME280;3073;42.660;23.316;2022-12-20T01:42:05;96276.09;;;-1.11;100.00
6090;BME280;3073;42.660;23.316;2022-12-20T01:44:54;96275.41;;;-1.13;100.00
6090;BME280;3073;42.660;23.316;2022-12-20T01:47:22;96268.94;;;-1.15;100.00
6090;BME280;3073;42.660;23.316;2022-12-20T01:49:55;96262.81;;;-1.22;100.00
6090;BME280;3073;42.660;23.316;2022-12-20T01:52:28;96265.38;;;-1.13;100.00
6090;BME280;3073;42.660;23.316;2022-12-20T01:55:02;96257.81;;;-1.22;100.00
6090;BME280;3073;42.660;23.316;2022-12-20T01:57:34;96259.66;;;-1.24;100.00
6090;BME280;3073;42.660;23.316;2022-12-20T02:00:03;96252.81;;;-1.22;100.00
6090;BME280;3073;42.660;23.316;2022-12-20T02:02:31;96252.13;;;-1.24;100.00
6090;BME280;3073;42.660;23.316;2022-12-20T02:04:59;96255.44;;;-1.24;100.00
6090;BME280;3073;42.660;23.316;2022-12-20T02:07:29;96253.94;;;-1.26;100.00
6090;BME280;3073;42.660;23.316;2022-12-20T02:09:57;96251.22;;;-1.23;100.00
6090;BME280;3073;42.660;23.316;2022-12-20T02:12:28;96252.81;;;-1.22;100.00
6090;BME280;3073;42.660;23.316;2022-12-20T02:15:08;96247.13;;;-1.24;100.00
6090;BME280;3073;42.660;23.316;2022-12-20T02:17:44;96247.00;;;-1.23;100.00
6090;BME280;3073;42.660;23.316;2022-12-20T02:29:24;96252.94;;;-1.24;100.00
6090;BME280;3073;42.660;23.316;2022-12-20T02:32:01;96249.00;;;-1.37;100.00
6090;BME280;3073;42.660;23.316;2022-12-20T02:34:32;96249.47;;;-1.43;100.00
6090;BME280;3073;42.660;23.316;2022-12-20T02:37:00;96255.59;;;-1.36;100.00
6090;BME280;3073;42.660;23.316;2022-12-20T02:39:28;96251.03;;;-1.31;100.00
6090;BME280;3073;42.660;23.316;2022-12-20T02:41:57;96248.63;;;-1.33;100.00
6090;BME280;3073;42.660;23.316;2022-12-20T02:44:29;96246.19;;;-1.44;100.00
6090;BME280;3073;42.660;23.316;2022-12-20T02:47:20;96251.28;;;-1.34;100.00
6090;BME280;3073;42.660;23.316;2022-12-20T02:49:50;96240.56;;;-1.36;100.00
6090;BME280;3073;42.660;23.316;2022-12-20T02:52:20;96245.56;;;-1.36;100.00
6090;BME280;3073;42.660;23.316;2022-12-20T02:54:51;96238.75;;;-1.34;100.00
6090;BME280;3073;42.660;23.316;2022-12-20T02:57:21;96245.72;;;-1.38;100.00
6090;BME280;3073;42.660;23.316;2022-12-20T02:59:57;96241.13;;;-1.33;100.00
6090;BME280;3073;42.660;23.316;2022-12-20T03:02:29;96239.41;;;-1.32;100.00
6090;BME280;3073;42.660;23.316;2022-12-20T03:05:19;96235.09;;;-1.30;100.00
6090;BME280;3073;42.660;23.316;2022-12-20T03:07:47;96248.28;;;-1.28;100.00
6090;BME280;3073;42.660;23.316;2022-12-20T03:10:14;96238.06;;;-1.36;100.00
6090;BME280;3073;42.660;23.316;2022-12-20T03:12:42;96230.31;;;-1.33;100.00
6090;BME280;3073;42.660;23.316;2022-12-20T03:15:09;96229.97;;;-1.29;100.00
6090;BME280;3073;42.660;23.316;2022-12-20T03:17:38;96222.44;;;-1.29;100.00
6090;BME280;3073;42.660;23.316;2022-12-20T03:20:07;96227.06;;;-1.45;100.00
6090;BME280;3073;42.660;23.316;2022-12-20T03:22:36;96227.81;;;-1.33;100.00
6090;BME280;3073;42.660;23.316;2022-12-20T03:25:04;96226.47;;;-1.37;100.00
6090;BME280;3073;42.660;23.316;2022-12-20T03:27:31;96226.34;;;-1.36;100.00
6090;BME280;3073;42.660;23.316;2022-12-20T03:29:58;96224.41;;;-1.32;100.00
6090;BME280;3073;42.660;23.316;2022-12-20T03:32:25;96224.22;;;-1.40;100.00
6090;BME280;3073;42.660;23.316;2022-12-20T03:34:53;96225.19;;;-1.32;100.00
6090;BME280;3073;42.660;23.316;2022-12-20T03:37:20;96228.75;;;-1.34;100.00
6090;BME280;3073;42.660;23.316;2022-12-20T03:39:47;96230.31;;;-1.33;100.00
6090;BME280;3073;42.660;23.316;2022-12-20T03:42:14;96228.59;;;-1.33;100.00
6090;BME280;3073;42.660;23.316;2022-12-20T03:44:42;96227.94;;;-1.35;100.00
6090;BME280;3073;42.660;23.316;2022-12-20T03:47:09;96223.78;;;-1.45;100.00
6090;BME280;3073;42.660;23.316;2022-12-20T03:49:36;96220.53;;;-1.57;100.00
6090;BME280;3073;42.660;23.316;2022-12-20T03:52:04;96221.75;;;-1.51;100.00
6090;BME280;3073;42.660;23.316;2022-12-20T03:54:31;96213.22;;;-1.60;100.00
6090;BME280;3073;42.660;23.316;2022-12-20T03:56:58;96214.16;;;-1.61;100.00
6090;BME280;3073;42.660;23.316;2022-12-20T03:59:26;96211.34;;;-1.68;100.00
6090;BME280;3073;42.660;23.316;2022-12-20T04:01:53;96214.28;;;-1.63;100.00
6090;BME280;3073;42.660;23.316;2022-12-20T04:04:20;96215.06;;;-1.62;100.00
6090;BME280;3073;42.660;23.316;2022-12-20T04:06:47;96219.16;;;-1.61;100.00
6090;BME280;3073;42.660;23.316;2022-12-20T04:09:15;96222.47;;;-1.61;100.00
6090;BME280;3073;42.660;23.316;2022-12-20T04:11:42;96226.69;;;-1.61;100.00
6090;BME280;3073;42.660;23.316;2022-12-20T04:14:09;96224.03;;;-1.60;100.00
6090;BME280;3073;42.660;23.316;2022-12-20T04:16:36;96212.22;;;-1.58;100.00
6090;BME280;3073;42.660;23.316;2022-12-20T04:19:03;96214.50;;;-1.66;100.00
6090;BME280;3073;42.660;23.316;2022-12-20T04:21:32;96212.16;;;-1.67;100.00
6090;BME280;3073;42.660;23.316;2022-12-20T04:24:01;96211.38;;;-1.79;100.00
6090;BME280;3073;42.660;23.316;2022-12-20T04:26:30;96205.56;;;-1.79;100.00
6090;BME280;3073;42.660;23.316;2022-12-20T04:28:57;96214.09;;;-1.82;100.00
6090;BME280;3073;42.660;23.316;2022-12-20T04:31:24;96205.47;;;-1.89;100.00
6090;BME280;3073;42.660;23.316;2022-12-20T04:33:51;96205.28;;;-1.97;100.00
6090;BME280;3073;42.660;23.316;2022-12-20T04:36:18;96198.22;;;-2.03;100.00
6090;BME280;3073;42.660;23.316;2022-12-20T04:38:45;96198.59;;;-2.19;100.00
6090;BME280;3073;42.660;23.316;2022-12-20T04:41:13;96202.72;;;-2.29;100.00
6090;BME280;3073;42.660;23.316;2022-12-20T04:43:49;96210.91;;;-2.38;100.00
6090;BME280;3073;42.660;23.316;2022-12-20T04:46:17;96203.06;;;-2.44;100.00
6090;BME280;3073;42.660;23.316;2022-12-20T04:48:44;96197.38;;;-2.46;100.00
6090;BME280;3073;42.660;23.316;2022-12-20T04:51:11;96202.28;;;-2.34;100.00
6090;BME280;3073;42.660;23.316;2022-12-20T04:53:37;96200.78;;;-2.36;100.00
6090;BME280;3073;42.660;23.316;2022-12-20T04:56:13;96200.91;;;-2.38;100.00
6090;BME280;3073;42.660;23.316;2022-12-20T04:58:40;96206.47;;;-2.34;100.00
6090;BME280;3073;42.660;23.316;2022-12-20T05:01:09;96190.91;;;-2.38;100.00
6090;BME280;3073;42.660;23.316;2022-12-20T05:03:37;96206.25;;;-2.31;100.00
6090;BME280;3073;42.660;23.316;2022-12-20T05:06:06;96197.28;;;-2.34;100.00
6090;BME280;3073;42.660;23.316;2022-12-20T05:08:35;96194.78;;;-2.45;100.00
6090;BME280;3073;42.660;23.316;2022-12-20T05:11:02;96200.78;;;-2.36;100.00
6090;BME280;3073;42.660;23.316;2022-12-20T05:13:29;96197.84;;;-2.30;100.00
6090;BME280;3073;42.660;23.316;2022-12-20T05:15:56;96199.44;;;-2.40;100.00
6090;BME280;3073;42.660;23.316;2022-12-20T05:18:25;96189.09;;;-2.36;100.00
6090;BME280;3073;42.660;23.316;2022-12-20T05:20:55;96200.09;;;-2.49;100.00
6090;BME280;3073;42.660;23.316;2022-12-20T05:23:41;96194.53;;;-2.53;100.00
6090;BME280;3073;42.660;23.316;2022-12-20T05:26:25;96204.44;;;-2.51;100.00
6090;BME280;3073;42.660;23.316;2022-12-20T05:28:54;96202.13;;;-2.43;100.00
6090;BME280;3073;42.660;23.316;2022-12-20T05:31:22;96204.88;;;-2.35;100.00
6090;BME280;3073;42.660;23.316;2022-12-20T05:33:50;96199.88;;;-2.46;100.00
6090;BME280;3073;42.660;23.316;2022-12-20T05:36:17;96201.13;;;-2.41;100.00
6090;BME280;3073;42.660;23.316;2022-12-20T05:38:45;96204.53;;;-2.42;100.00
6090;BME280;3073;42.660;23.316;2022-12-20T05:41:12;96206.69;;;-2.60;100.00
6090;BME280;3073;42.660;23.316;2022-12-20T05:43:40;96206.34;;;-2.66;100.00
6090;BME280;3073;42.660;23.316;2022-12-20T05:46:07;96207.16;;;-2.66;100.00
6090;BME280;3073;42.660;23.316;2022-12-20T05:48:35;96213.38;;;-2.60;100.00
6090;BME280;3073;42.660;23.316;2022-12-20T05:51:03;96211.56;;;-2.69;100.00
6090;BME280;3073;42.660;23.316;2022-12-20T05:53:30;96215.09;;;-2.72;100.00
6090;BME280;3073;42.660;23.316;2022-12-20T05:55:57;96211.34;;;-2.77;100.00
6090;BME280;3073;42.660;23.316;2022-12-20T05:58:25;96211.69;;;-2.71;100.00
6090;BME280;3073;42.660;23.316;2022-12-20T06:00:53;96214.63;;;-2.77;100.00
6090;BME280;3073;42.660;23.316;2022-12-20T06:03:22;96213.97;;;-2.68;100.00
6090;BME280;3073;42.660;23.316;2022-12-20T06:05:49;96214.44;;;-2.74;100.00
6090;BME280;3073;42.660;23.316;2022-12-20T06:08:18;96217.38;;;-2.69;100.00
6090;BME280;3073;42.660;23.316;2022-12-20T06:10:47;96214.63;;;-2.66;100.00
6090;BME280;3073;42.660;23.316;2022-12-20T06:13:14;96214.75;;;-2.78;100.00
6090;BME280;3073;42.660;23.316;2022-12-20T06:15:42;96210.78;;;-2.70;100.00
6090;BME280;3073;42.660;23.316;2022-12-20T06:18:09;96218.28;;;-2.58;100.00
6090;BME280;3073;42.660;23.316;2022-12-20T06:20:36;96215.09;;;-2.72;100.00
6090;BME280;3073;42.660;23.316;2022-12-20T06:23:04;96218.16;;;-2.68;100.00
6090;BME280;3073;42.660;23.316;2022-12-20T06:25:33;96212.81;;;-2.75;100.00
6090;BME280;3073;42.660;23.316;2022-12-20T06:28:00;96213.03;;;-2.67;100.00
6090;BME280;3073;42.660;23.316;2022-12-20T06:30:27;96212.63;;;-2.61;100.00
6090;BME280;3073;42.660;23.316;2022-12-20T06:32:54;96219.88;;;-2.57;100.00
6090;BME280;3073;42.660;23.316;2022-12-20T06:35:21;96211.69;;;-2.48;100.00
6090;BME280;3073;42.660;23.316;2022-12-20T06:37:48;96222.34;;;-2.46;100.00
6090;BME280;3073;42.660;23.316;2022-12-20T06:40:15;96215.72;;;-2.03;100.00
6090;BME280;3073;42.660;23.316;2022-12-20T06:42:43;96210.16;;;-1.84;100.00
6090;BME280;3073;42.660;23.316;2022-12-20T06:45:11;96216.75;;;-1.51;100.00
6090;BME280;3073;42.660;23.316;2022-12-20T06:47:38;96208.84;;;-1.15;100.00
6090;BME280;3073;42.660;23.316;2022-12-20T06:50:06;96211.34;;;-0.94;100.00
6090;BME280;3073;42.660;23.316;2022-12-20T06:52:33;96201.47;;;-0.66;100.00
6090;BME280;3073;42.660;23.316;2022-12-20T06:55:00;96198.97;;;-0.35;100.00
6090;BME280;3073;42.660;23.316;2022-12-20T06:57:27;96204.13;;;-0.37;100.00
6090;BME280;3073;42.660;23.316;2022-12-20T06:59:55;96204.44;;;-0.11;100.00
6090;BME280;3073;42.660;23.316;2022-12-20T07:02:22;96206.69;;;-0.08;100.00
6090;BME280;3073;42.660;23.316;2022-12-20T07:04:49;96194.72;;;0.05;100.00
6090;BME280;3073;42.660;23.316;2022-12-20T07:07:16;96193.66;;;0.27;100.00
6090;BME280;3073;42.660;23.316;2022-12-20T07:09:43;96187.75;;;0.37;100.00
6090;BME280;3073;42.660;23.316;2022-12-20T07:12:10;96186.72;;;0.49;100.00
6090;BME280;3073;42.660;23.316;2022-12-20T07:14:37;96186.28;;;0.25;100.00
6090;BME280;3073;42.660;23.316;2022-12-20T07:17:05;96187.91;;;-0.23;100.00
6090;BME280;3073;42.660;23.316;2022-12-20T07:19:33;96190.06;;;-0.79;100.00
6090;BME280;3073;42.660;23.316;2022-12-20T07:22:00;96192.78;;;-1.13;100.00
6090;BME280;3073;42.660;23.316;2022-12-20T07:24:28;96187.09;;;-1.35;100.00
6090;BME280;3073;42.660;23.316;2022-12-20T07:26:55;96195.63;;;-1.59;100.00
6090;BME280;3073;42.660;23.316;2022-12-20T07:29:22;96181.25;;;-1.77;100.00
6090;BME280;3073;42.660;23.316;2022-12-20T07:31:50;96193.38;;;-1.73;100.00
6090;BME280;3073;42.660;23.316;2022-12-20T07:34:18;96188.28;;;-1.82;100.00
6090;BME280;3073;42.660;23.316;2022-12-20T07:36:46;96188.38;;;-1.73;100.00
6090;BME280;3073;42.660;23.316;2022-12-20T07:39:13;96180.13;;;-1.84;100.00
6090;BME280;3073;42.660;23.316;2022-12-20T07:41:40;96181.59;;;-1.82;100.00
6090;BME280;3073;42.660;23.316;2022-12-20T07:44:07;96191.38;;;-1.90;100.00
6090;BME280;3073;42.660;23.316;2022-12-20T07:46:34;96189.53;;;-1.77;100.00
6090;BME280;3073;42.660;23.316;2022-12-20T07:49:01;96185.28;;;-1.65;100.00
6090;BME280;3073;42.660;23.316;2022-12-20T07:51:32;96181.13;;;-1.76;100.00
6090;BME280;3073;42.660;23.316;2022-12-20T07:54:03;96181.31;;;-1.68;100.00
6090;BME280;3073;42.660;23.316;2022-12-20T07:56:33;96175.34;;;-1.56;100.00
6090;BME280;3073;42.660;23.316;2022-12-20T07:59:04;96172.56;;;-1.41;100.00
6090;BME280;3073;42.660;23.316;2022-12-20T08:01:31;96168.53;;;-1.33;100.00
6090;BME280;3073;42.660;23.316;2022-12-20T08:04:03;96181.06;;;-1.12;100.00
6090;BME280;3073;42.660;23.316;2022-12-20T08:06:33;96170.88;;;-0.90;100.00
6090;BME280;3073;42.660;23.316;2022-12-20T08:09:04;96173.53;;;-0.61;100.00
6090;BME280;3073;42.660;23.316;2022-12-20T08:11:32;96165.44;;;-0.34;100.00
6090;BME280;3073;42.660;23.316;2022-12-20T08:14:00;96164.78;;;0.23;100.00
6090;BME280;3073;42.660;23.316;2022-12-20T08:16:28;96173.47;;;0.28;100.00
6090;BME280;3073;42.660;23.316;2022-12-20T08:18:55;96163.03;;;0.62;100.00
6090;BME280;3073;42.660;23.316;2022-12-20T08:21:22;96162.16;;;1.09;100.00
6090;BME280;3073;42.660;23.316;2022-12-20T08:23:50;96161.75;;;1.50;100.00
6090;BME280;3073;42.660;23.316;2022-12-20T08:26:17;96163.38;;;2.14;100.00
6090;BME280;3073;42.660;23.316;2022-12-20T08:28:44;96161.94;;;2.65;100.00
6090;BME280;3073;42.660;23.316;2022-12-20T08:31:11;96157.13;;;3.23;91.24
6090;BME280;3073;42.660;23.316;2022-12-20T08:33:39;96156.09;;;3.75;88.25
6090;BME280;3073;42.660;23.316;2022-12-20T08:36:07;96156.00;;;3.93;81.52
6090;BME280;3073;42.660;23.316;2022-12-20T08:38:39;96151.53;;;3.79;77.62
6090;BME280;3073;42.660;23.316;2022-12-20T08:41:09;96152.09;;;4.06;74.75
6090;BME280;3073;42.660;23.316;2022-12-20T08:43:37;96151.22;;;4.80;70.15
6090;BME280;3073;42.660;23.316;2022-12-20T08:46:04;96146.94;;;4.56;70.43
6090;BME280;3073;42.660;23.316;2022-12-20T08:48:33;96137.84;;;5.27;67.21
6090;BME280;3073;42.660;23.316;2022-12-20T08:51:02;96147.47;;;5.31;66.21
6090;BME280;3073;42.660;23.316;2022-12-20T08:53:29;96145.19;;;5.52;64.53
6090;BME280;3073;42.660;23.316;2022-12-20T08:56:03;96148.16;;;5.17;66.46
6090;BME280;3073;42.660;23.316;2022-12-20T08:58:32;96141.34;;;5.17;65.13
6090;BME280;3073;42.660;23.316;2022-12-20T09:01:00;96144.59;;;5.34;64.23
6090;BME280;3073;42.660;23.316;2022-12-20T09:03:28;96138.81;;;5.64;64.03
6090;BME280;3073;42.660;23.316;2022-12-20T09:05:56;96135.25;;;6.43;61.58
6090;BME280;3073;42.660;23.316;2022-12-20T09:08:25;96133.25;;;6.76;60.53
6090;BME280;3073;42.660;23.316;2022-12-20T09:10:53;96131.47;;;6.39;59.74
6090;BME280;3073;42.660;23.316;2022-12-20T09:13:20;96131.34;;;6.93;58.95
6090;BME280;3073;42.660;23.316;2022-12-20T09:15:49;96125.69;;;7.35;59.18
6090;BME280;3073;42.660;23.316;2022-12-20T09:18:16;96124.16;;;6.82;58.06
6090;BME280;3073;42.660;23.316;2022-12-20T09:20:43;96119.69;;;6.84;57.62
6090;BME280;3073;42.660;23.316;2022-12-20T09:23:10;96115.16;;;6.94;57.47
6090;BME280;3073;42.660;23.316;2022-12-20T09:25:37;96110.63;;;5.67;58.07
6090;BME280;3073;42.660;23.316;2022-12-20T09:28:04;96103.19;;;6.05;57.86
6090;BME280;3073;42.660;23.316;2022-12-20T09:30:31;96098.22;;;6.34;58.51
6090;BME280;3073;42.660;23.316;2022-12-20T09:33:00;96096.81;;;6.32;58.33
6090;BME280;3073;42.660;23.316;2022-12-20T09:35:27;96095.28;;;6.83;57.69
6090;BME280;3073;42.660;23.316;2022-12-20T09:37:55;96091.47;;;6.64;57.20
6090;BME280;3073;42.660;23.316;2022-12-20T09:40:25;96092.41;;;5.72;56.55
6090;BME280;3073;42.660;23.316;2022-12-20T09:42:55;96085.03;;;5.62;58.99
6090;BME280;3073;42.660;23.316;2022-12-20T09:45:25;96085.38;;;6.36;59.04
6090;BME280;3073;42.660;23.316;2022-12-20T09:47:52;96087.25;;;6.94;58.04
6090;BME280;3073;42.660;23.316;2022-12-20T09:50:36;96083.03;;;6.11;56.94
6090;BME280;3073;42.660;23.316;2022-12-20T09:53:13;96080.72;;;4.77;62.63
6090;BME280;3073;42.660;23.316;2022-12-20T09:55:49;96070.53;;;5.48;58.10
6090;BME280;3073;42.660;23.316;2022-12-20T09:58:39;96061.84;;;6.04;59.28
6090;BME280;3073;42.660;23.316;2022-12-20T10:01:15;96064.94;;;7.04;55.76
6090;BME280;3073;42.660;23.316;2022-12-20T10:03:43;96057.34;;;7.54;55.76
6090;BME280;3073;42.660;23.316;2022-12-20T10:06:19;96051.19;;;7.99;53.84
6090;BME280;3073;42.660;23.316;2022-12-20T10:08:51;96043.25;;;7.88;52.25
6090;BME280;3073;42.660;23.316;2022-12-20T10:11:38;96043.56;;;7.99;52.26
6090;BME280;3073;42.660;23.316;2022-12-20T10:14:15;96030.31;;;8.25;51.78
6090;BME280;3073;42.660;23.316;2022-12-20T10:16:46;96031.78;;;6.91;51.56
6090;BME280;3073;42.660;23.316;2022-12-20T10:19:34;96015.31;;;7.66;52.68
6090;BME280;3073;42.660;23.316;2022-12-20T10:22:10;96011.75;;;6.96;53.78
6090;BME280;3073;42.660;23.316;2022-12-20T10:24:40;96009.31;;;4.67;57.05
6090;BME280;3073;42.660;23.316;2022-12-20T10:27:14;95999.84;;;6.15;56.39
6090;BME280;3073;42.660;23.316;2022-12-20T10:29:41;95992.69;;;7.00;53.91
6090;BME280;3073;42.660;23.316;2022-12-20T10:32:12;95982.53;;;7.50;53.72
6090;BME280;3073;42.660;23.316;2022-12-20T10:34:43;95973.50;;;7.69;52.42
6090;BME280;3073;42.660;23.316;2022-12-20T10:37:14;95972.22;;;7.58;52.27
6090;BME280;3073;42.660;23.316;2022-12-20T10:39:42;95974.09;;;7.14;52.75
6090;BME280;3073;42.660;23.316;2022-12-20T10:42:33;95965.56;;;6.27;53.68
6090;BME280;3073;42.660;23.316;2022-12-20T10:45:03;95954.53;;;6.20;52.59
6090;BME280;3073;42.660;23.316;2022-12-20T10:47:37;95955.59;;;6.55;53.34
6090;BME280;3073;42.660;23.316;2022-12-20T10:50:13;95945.34;;;6.92;52.72
6090;BME280;3073;42.660;23.316;2022-12-20T10:52:43;95949.19;;;7.39;52.37
6090;BME280;3073;42.660;23.316;2022-12-20T10:55:31;95944.19;;;7.31;51.53
6090;BME280;3073;42.660;23.316;2022-12-20T10:58:02;95930.94;;;7.14;52.85
6090;BME280;3073;42.660;23.316;2022-12-20T11:00:29;95939.34;;;7.14;52.62
6090;BME280;3073;42.660;23.316;2022-12-20T11:03:12;95942.06;;;7.13;52.40
6090;BME280;3073;42.660;23.316;2022-12-20T11:05:40;95931.59;;;7.58;51.74
6090;BME280;3073;42.660;23.316;2022-12-20T11:08:22;95924.81;;;7.44;50.16
6090;BME280;3073;42.660;23.316;2022-12-20T11:11:13;95926.53;;;7.37;50.78
6090;BME280;3073;42.660;23.316;2022-12-20T11:13:41;95920.09;;;7.84;52.23
6090;BME280;3073;42.660;23.316;2022-12-20T11:16:22;95921.13;;;8.17;50.25
6090;BME280;3073;42.660;23.316;2022-12-20T11:18:55;95918.53;;;8.38;49.69
6090;BME280;3073;42.660;23.316;2022-12-20T11:21:31;95911.78;;;7.96;50.13
6090;BME280;3073;42.660;23.316;2022-12-20T11:24:10;95909.59;;;8.21;49.24
6090;BME280;3073;42.660;23.316;2022-12-20T11:26:54;95896.81;;;8.08;50.03
6090;BME280;3073;42.660;23.316;2022-12-20T11:29:40;95899.84;;;8.52;48.33
6090;BME280;3073;42.660;23.316;2022-12-20T11:32:18;95895.44;;;8.74;47.35
6090;BME280;3073;42.660;23.316;2022-12-20T11:34:57;95896.25;;;7.85;47.45
6090;BME280;3073;42.660;23.316;2022-12-20T11:37:32;95892.06;;;7.49;49.33
6090;BME280;3073;42.660;23.316;2022-12-20T11:40:15;95882.97;;;7.61;48.60
6090;BME280;3073;42.660;23.316;2022-12-20T11:42:53;95884.84;;;8.30;49.38
6090;BME280;3073;42.660;23.316;2022-12-20T11:45:30;95882.47;;;8.62;47.48
6090;BME280;3073;42.660;23.316;2022-12-20T11:48:20;95876.25;;;8.71;47.21
6090;BME280;3073;42.660;23.316;2022-12-20T11:51:01;95873.19;;;8.89;47.88
6090;BME280;3073;42.660;23.316;2022-12-20T11:53:34;95879.50;;;8.52;48.41
6090;BME280;3073;42.660;23.316;2022-12-20T11:56:06;95874.72;;;8.36;46.55
6090;BME280;3073;42.660;23.316;2022-12-20T11:58:45;95863.50;;;7.05;48.47
6090;BME280;3073;42.660;23.316;2022-12-20T12:01:16;95868.31;;;5.76;51.68
6090;BME280;3073;42.660;23.316;2022-12-20T12:03:51;95872.56;;;4.93;52.95
6090;BME280;3073;42.660;23.316;2022-12-20T12:06:22;95865.13;;;5.14;53.51
6090;BME280;3073;42.660;23.316;2022-12-20T12:08:54;95868.88;;;5.86;53.01
6090;BME280;3073;42.660;23.316;2022-12-20T12:11:31;95858.22;;;6.49;52.21
6090;BME280;3073;42.660;23.316;2022-12-20T12:14:00;95857.72;;;6.90;51.30
6090;BME280;3073;42.660;23.316;2022-12-20T12:16:33;95857.66;;;7.74;49.85
6090;BME280;3073;42.660;23.316;2022-12-20T12:19:01;95850.47;;;7.29;48.52
6090;BME280;3073;42.660;23.316;2022-12-20T12:21:32;95851.50;;;6.78;49.50
6090;BME280;3073;42.660;23.316;2022-12-20T12:24:04;95846.91;;;7.23;51.03
6090;BME280;3073;42.660;23.316;2022-12-20T12:26:36;95852.53;;;8.23;49.80
6090;BME280;3073;42.660;23.316;2022-12-20T12:29:09;95847.34;;;8.99;47.54
6090;BME280;3073;42.660;23.316;2022-12-20T12:31:40;95849.97;;;9.71;47.69
6090;BME280;3073;42.660;23.316;2022-12-20T12:34:15;95853.50;;;9.96;46.13
6090;BME280;3073;42.660;23.316;2022-12-20T12:37:10;95847.00;;;10.13;45.64
6090;BME280;3073;42.660;23.316;2022-12-20T12:43:26;95852.88;;;10.33;46.00
6090;BME280;3073;42.660;23.316;2022-12-20T12:46:07;95839.72;;;10.37;44.78
6090;BME280;3073;42.660;23.316;2022-12-20T12:48:39;95839.78;;;9.38;44.64
6090;BME280;3073;42.660;23.316;2022-12-20T12:51:09;95848.56;;;9.16;45.82
6090;BME280;3073;42.660;23.316;2022-12-20T12:53:41;95842.16;;;9.46;46.67
6090;BME280;3073;42.660;23.316;2022-12-20T12:56:28;95841.91;;;10.20;45.19
6090;BME280;3073;42.660;23.316;2022-12-20T12:59:23;95837.19;;;10.23;44.16
6090;BME280;3073;42.660;23.316;2022-12-20T13:01:51;95830.38;;;9.32;44.29
6090;BME280;3073;42.660;23.316;2022-12-20T13:04:26;95830.41;;;8.58;46.77
6090;BME280;3073;42.660;23.316;2022-12-20T13:06:57;95823.09;;;8.42;46.86
6090;BME280;3073;42.660;23.316;2022-12-20T13:09:38;95827.59;;;8.06;46.99
6090;BME280;3073;42.660;23.316;2022-12-20T13:18:27;95808.78;;;6.96;48.55
6090;BME280;3073;42.660;23.316;2022-12-20T13:21:17;95806.72;;;6.85;49.30
6090;BME280;3073;42.660;23.316;2022-12-20T13:33:22;95821.66;;;5.70;51.20
6090;BME280;3073;42.660;23.316;2022-12-20T13:36:03;95806.56;;;6.50;51.68
6090;BME280;3073;42.660;23.316;2022-12-20T13:41:39;95806.00;;;5.52;52.57
6090;BME280;3073;42.660;23.316;2022-12-20T13:44:29;95805.75;;;5.25;53.08
6090;BME280;3073;42.660;23.316;2022-12-20T13:47:02;95807.16;;;5.27;53.51
6090;BME280;3073;42.660;23.316;2022-12-20T13:49:35;95811.22;;;5.51;52.69
6090;BME280;3073;42.660;23.316;2022-12-20T13:54:57;95803.84;;;4.58;55.37
6090;BME280;3073;42.660;23.316;2022-12-20T13:57:28;95807.16;;;4.28;56.23
6090;BME280;3073;42.660;23.316;2022-12-20T13:59:59;95806.06;;;3.76;57.39